Covington, KY

4:57 PM EDT on March 31, 2015 (GMT -0400)
Newport Aquarium | | Change Station
CLOSE
Current Station
Personal Weather Station
Location: Newport, KY
Elevation: 499 ft
Nearby Weather Stations
Active Advisory: Special Statement

Elev 499 ft 39.09 °N, 84.50 °W | Updated 3 minutes ago

Clear
Clear
69.3 °F
Feels Like 69.3 °F
N
5.0
Wind Variable Wind from WNW
Gusts 5.0 mph

Today
High -- | Low -- °F
--% Chance of Precip.
Yesterday
High -- | Low -- °F
Precip. -- in
7:24 AM 8:00 PM
Waxing Gibbous, 88% visible
Pressure 29.86 in
Visibility 10.0 miles
Clouds Clear
Dew Point 32 °F
Humidity 25%
Rainfall 0.00 in
Snow Depth Not available.
UV 4 out of 12
Pollen 10.40 out of 12
Air Quality Not available.
Flu Activity Not available.
METAR KLUK 312053Z 32018G28KT 10SM CLR 18/01 A2986 RMK AO2 PK WND 35028/2001 SLP110 T01830011 53018

More Conditions Fewer Conditions

Pressure 29.86 in
Visibility 10.0 miles
Clouds Clear
Dew Point 32 °F
Humidity 25%
Rainfall 0.00 in
Snow Depth Not available.
UV 4 out of 12
Pollen 10.40 out of 12
Air Quality Not available.
Flu Activity Not available.
METAR KLUK 312053Z 32018G28KT 10SM CLR 18/01 A2986 RMK AO2 PK WND 35028/2001 SLP110 T01830011 53018

More Conditions Fewer Conditions

10-Day Weather Forecast

Almanac

Astronomy

Mar. 31, 2015 Rise Set
Actual Time
Civil Twilight
Nautical Twilight
Astronomical Twilight
Moon
Length of Visible Light
Length of Day
Tomorrow will be .
, % of the Moon is Illuminated

Today's Extremes

State Highs State Lows

Community

WunderPhotos

Upload Photos

1,809,826 photos uploaded!

WunderBlogs® & News

Nearby

Air Quality

  Air Quality AQ Index Pollutant
Not available.

Snow Depth

Station Depth Elevation

Earthquake Activity

City Distance Mag. Time & Date
Minimum magnitude displayed is 2.5.

Coastal Water Temperatures

Place Temperature

Stations

Nearby Weather Stations

Station Location Temp. Windchill Dew Point Humidity Wind Precip. Elev Updated Type
                   
Special Statement
Statement as of 2:34 PM EDT on March 31, 2015

... Enhanced fire danger today due to strong winds and dry fuels...

Winds circulating around low pressure will reach 20 mph
with gusts to 35 mph out of the northwest. The gusty winds will
combine with low fuel moisture and relative humidity to produce an
elevated risk for wild fires. Persons are advised to avoid open
burning today... and to contact fire officials if a wildfire
occurs.


234 PM EDT Tue Mar 31 2015

... Enhanced fire danger today due to strong winds and dry fuels...

Winds circulating around low pressure will reach 20 mph
with gusts to 35 mph out of the northwest. The gusty winds will
combine with low fuel moisture and relative humidity to produce an
elevated risk for wild fires. Persons are advised to avoid open
burning today... and to contact fire officials if a wildfire
occurs.